Time,TemperatureF,DewpointF,PressureIn,WindDirection,WindDirectionDegrees,WindSpeedMPH,WindSpeedGustMPH,Humidity,HourlyPrecipIn,Conditions,Clouds,dailyrainin,SoftwareType,DateUTC
2013-10-07 00:01:00,58.6,52.8,30.14,NNE,24,2.0,2.0,81,0.00,,SKC,0.00,VWS V13.01,2013-10-07 04:01:00,
2013-10-07 00:06:00,58.6,52.8,30.13,SE,136,0.0,0.0,81,0.00,,SKC,0.00,VWS V13.01,2013-10-07 04:06:00,
2013-10-07 00:11:00,58.6,52.8,30.14,South,181,2.0,2.0,81,0.00,,SKC,0.00,VWS V13.01,2013-10-07 04:11:00,
2013-10-07 00:16:00,58.6,52.8,30.14,NNW,338,0.0,0.0,81,0.00,,SKC,0.00,VWS V13.01,2013-10-07 04:16:00,
2013-10-07 00:21:00,58.6,52.8,30.14,ENE,68,0.0,0.0,81,0.00,,SKC,0.00,VWS V13.01,2013-10-07 04:21:00,
2013-10-07 00:26:00,58.6,52.8,30.13,East,91,0.2,0.2,81,0.00,,SKC,0.00,VWS V13.01,2013-10-07 04:26:00,
2013-10-07 00:31:00,58.4,52.6,30.13,SE,136,1.5,1.5,81,0.00,,SKC,0.00,VWS V13.01,2013-10-07 04:31:00,
2013-10-07 00:36:00,58.4,52.6,30.13,SW,226,0.0,0.0,81,0.00,,SKC,0.00,VWS V13.01,2013-10-07 04:36:00,
2013-10-07 00:41:00,58.6,52.8,30.13,SW,226,0.0,0.0,81,0.00,,SKC,0.00,VWS V13.01,2013-10-07 04:41:00,
2013-10-07 00:46:00,58.6,52.8,30.14,SE,136,0.0,0.0,81,0.00,,SKC,0.00,VWS V13.01,2013-10-07 04:46:00,
2013-10-07 00:51:00,58.6,52.8,30.14,South,181,0.0,0.0,81,0.00,,SKC,0.00,VWS V13.01,2013-10-07 04:51:00,
2013-10-07 00:56:00,58.6,52.8,30.13,SE,136,0.0,0.0,81,0.00,,SKC,0.00,VWS V13.01,2013-10-07 04:56:00,
2013-10-07 01:01:00,58.4,52.6,30.14,SSE,158,0.0,0.0,81,0.00,,SKC,0.00,VWS V13.01,2013-10-07 05:01:00,
2013-10-07 01:06:00,58.2,52.4,30.14,South,181,0.0,0.0,81,0.00,,SKC,0.00,VWS V13.01,2013-10-07 05:06:00,
2013-10-07 01:11:00,58.2,52.4,30.13,SSE,158,2.9,2.9,81,0.00,,SKC,0.00,VWS V13.01,2013-10-07 05:11:00,
2013-10-07 01:16:00,58.4,52.6,30.13,SE,136,0.2,0.2,81,0.00,,SKC,0.00,VWS V13.01,2013-10-07 05:16:00,
2013-10-07 01:21:00,58.6,52.8,30.13,SSE,158,0.0,0.0,81,0.00,,SKC,0.00,VWS V13.01,2013-10-07 05:21:00,
2013-10-07 01:26:00,58.6,52.5,30.13,ENE,68,0.0,0.0,80,0.00,,SKC,0.00,VWS V13.01,2013-10-07 05:26:00,
2013-10-07 01:31:00,58.6,52.8,30.13,South,181,1.3,1.3,81,0.00,,SKC,0.00,VWS V13.01,2013-10-07 05:31:00,
2013-10-07 01:36:00,58.8,52.7,30.13,South,181,0.6,0.6,80,0.00,,SKC,0.00,VWS V13.01,2013-10-07 05:36:00,
2013-10-07 01:41:00,58.8,52.7,30.13,SSW,204,0.0,0.0,80,0.00,,SKC,0.00,VWS V13.01,2013-10-07 05:41:00,
2013-10-07 01:47:00,58.8,52.7,30.13,SSW,204,0.0,0.0,80,0.00,,SKC,0.00,VWS V13.01,2013-10-07 05:47:00,
2013-10-07 01:52:00,58.8,52.7,30.13,South,181,4.0,4.0,80,0.00,,SKC,0.00,VWS V13.01,2013-10-07 05:52:00,
2013-10-07 01:57:00,58.8,52.7,30.13,ENE,68,0.0,0.0,80,0.00,,SKC,0.00,VWS V13.01,2013-10-07 05:57:00,
2013-10-07 02:02:00,58.8,52.7,30.12,South,181,3.5,3.5,80,0.00,,SKC,0.00,VWS V13.01,2013-10-07 06:02:00,
2013-10-07 02:07:00,58.8,52.7,30.12,NNE,24,0.0,0.0,80,0.00,,SKC,0.00,VWS V13.01,2013-10-07 06:07:00,
2013-10-07 02:12:00,58.8,52.7,30.12,SSE,158,0.6,0.6,80,0.00,,SKC,0.00,VWS V13.01,2013-10-07 06:12:00,
2013-10-07 02:17:00,58.8,52.7,30.12,SSE,158,0.2,0.2,80,0.00,,SKC,0.00,VWS V13.01,2013-10-07 06:17:00,
2013-10-07 02:22:00,58.8,52.7,30.11,ENE,68,2.0,2.0,80,0.00,,SKC,0.00,VWS V13.01,2013-10-07 06:22:00,
2013-10-07 02:27:00,58.8,52.7,30.11,South,181,0.6,0.6,80,0.00,,SKC,0.00,VWS V13.01,2013-10-07 06:27:00,
2013-10-07 02:32:00,58.8,52.7,30.11,SSE,158,0.0,0.0,80,0.00,,SKC,0.00,VWS V13.01,2013-10-07 06:32:00,
2013-10-07 02:37:00,58.8,52.7,30.11,SW,226,0.0,0.0,80,0.00,,SKC,0.00,VWS V13.01,2013-10-07 06:37:00,
2013-10-07 02:42:00,58.8,52.7,30.11,SSW,204,0.0,0.0,80,0.00,,SKC,0.00,VWS V13.01,2013-10-07 06:42:00,
2013-10-07 02:47:00,58.8,52.7,30.11,SSE,158,0.0,0.0,80,0.00,,SKC,0.00,VWS V13.01,2013-10-07 06:47:00,
2013-10-07 02:52:00,58.8,52.7,30.11,South,181,0.0,0.0,80,0.00,,SKC,0.00,VWS V13.01,2013-10-07 06:52:00,
2013-10-07 02:57:00,58.8,52.7,30.10,SSE,158,0.0,0.0,80,0.00,,SKC,0.00,VWS V13.01,2013-10-07 06:57:00,
2013-10-07 03:02:00,58.8,52.7,30.10,South,181,0.6,0.6,80,0.00,,SKC,0.00,VWS V13.01,2013-10-07 07:02:00,
2013-10-07 03:07:00,58.8,52.7,30.10,SSE,158,1.5,1.5,80,0.00,,SKC,0.00,VWS V13.01,2013-10-07 07:07:00,
2013-10-07 03:12:00,59.0,52.8,30.10,SSE,158,0.0,0.0,80,0.00,,SKC,0.00,VWS V13.01,2013-10-07 07:12:00,
2013-10-07 03:17:00,59.1,52.9,30.09,SSE,158,0.0,0.0,80,0.00,,SKC,0.00,VWS V13.01,2013-10-07 07:17:00,
2013-10-07 03:22:00,59.1,52.9,30.10,SSE,158,0.0,0.0,80,0.00,,SKC,0.00,VWS V13.01,2013-10-07 07:22:00,
2013-10-07 03:27:00,59.1,52.9,30.09,East,91,0.0,0.0,80,0.00,,SKC,0.00,VWS V13.01,2013-10-07 07:27:00,
2013-10-07 03:32:00,59.1,52.9,30.09,South,181,0.0,0.0,80,0.00,,SKC,0.00,VWS V13.01,2013-10-07 07:32:00,
2013-10-07 03:37:00,59.1,52.9,30.09,SSE,158,1.3,1.3,80,0.00,,SKC,0.00,VWS V13.01,2013-10-07 07:37:00,
2013-10-07 03:42:00,59.1,52.9,30.09,South,181,0.0,0.0,80,0.00,,SKC,0.00,VWS V13.01,2013-10-07 07:42:00,
2013-10-07 03:47:00,59.1,52.9,30.09,SSE,158,1.5,1.5,80,0.00,,SKC,0.00,VWS V13.01,2013-10-07 07:47:00,
2013-10-07 03:52:00,59.1,52.9,30.09,SSW,204,0.0,0.0,80,0.00,,SKC,0.00,VWS V13.01,2013-10-07 07:52:00,
2013-10-07 03:57:00,59.3,53.1,30.09,SE,136,0.0,0.0,80,0.00,,SKC,0.00,VWS V13.01,2013-10-07 07:57:00,
2013-10-07 04:02:00,59.3,53.1,30.08,ENE,68,0.0,0.0,80,0.00,,SKC,0.00,VWS V13.01,2013-10-07 08:02:00,
2013-10-07 04:07:00,59.3,53.1,30.09,NNW,338,2.4,2.4,80,0.00,,SKC,0.00,VWS V13.01,2013-10-07 08:07:00,
2013-10-07 04:12:00,59.3,53.1,30.08,South,181,0.0,0.0,80,0.00,,SKC,0.00,VWS V13.01,2013-10-07 08:12:00,
2013-10-07 04:17:00,59.3,53.1,30.08,SSE,158,0.0,0.0,80,0.00,,SKC,0.00,VWS V13.01,2013-10-07 08:17:00,
2013-10-07 04:22:00,59.3,53.1,30.08,SSE,158,0.0,0.0,80,0.00,,SKC,0.00,VWS V13.01,2013-10-07 08:22:00,
2013-10-07 04:27:00,59.5,53.3,30.08,SSE,158,0.0,0.0,80,0.00,,SKC,0.00,VWS V13.01,2013-10-07 08:27:00,
2013-10-07 04:32:00,59.5,53.3,30.08,SE,136,0.0,0.0,80,0.00,,SKC,0.00,VWS V13.01,2013-10-07 08:32:00,
2013-10-07 04:37:00,59.5,53.3,30.08,SSE,158,0.0,0.0,80,0.00,,SKC,0.00,VWS V13.01,2013-10-07 08:37:00,
2013-10-07 04:42:00,59.5,53.3,30.08,SE,136,0.0,0.0,80,0.00,,SKC,0.00,VWS V13.01,2013-10-07 08:42:00,
2013-10-07 04:47:00,59.5,53.3,30.08,SSE,158,0.0,0.0,80,0.00,,SKC,0.00,VWS V13.01,2013-10-07 08:47:00,
2013-10-07 04:52:00,59.5,53.3,30.08,ENE,68,0.0,0.0,80,0.00,,SKC,0.00,VWS V13.01,2013-10-07 08:52:00,
2013-10-07 04:57:00,59.5,53.7,30.07,SSE,158,1.1,1.1,81,0.00,,SKC,0.00,VWS V13.01,2013-10-07 08:57:00,
2013-10-07 05:02:00,59.5,53.7,30.08,SSE,158,0.0,0.0,81,0.00,,SKC,0.00,VWS V13.01,2013-10-07 09:02:00,
2013-10-07 05:07:00,59.5,53.7,30.07,SSE,158,0.0,0.0,81,0.00,,SKC,0.00,VWS V13.01,2013-10-07 09:07:00,
2013-10-07 05:12:00,59.5,53.7,30.07,ESE,114,0.0,0.0,81,0.00,,SKC,0.00,VWS V13.01,2013-10-07 09:12:00,
2013-10-07 05:17:00,59.5,53.7,30.07,SSE,158,0.0,0.0,81,0.00,,SKC,0.00,VWS V13.01,2013-10-07 09:17:00,
2013-10-07 05:22:00,59.5,53.7,30.07,SSE,158,0.0,0.0,81,0.00,,SKC,0.00,VWS V13.01,2013-10-07 09:22:00,
2013-10-07 05:27:00,59.5,53.7,30.06,East,91,0.0,0.0,81,0.00,,SKC,0.00,VWS V13.01,2013-10-07 09:27:00,
2013-10-07 05:32:00,59.5,53.7,30.06,ESE,114,0.0,0.0,81,0.00,,SKC,0.00,VWS V13.01,2013-10-07 09:32:00,
2013-10-07 05:37:00,59.5,53.7,30.07,SE,136,0.0,0.0,81,0.00,,SKC,0.00,VWS V13.01,2013-10-07 09:37:00,
2013-10-07 05:42:00,59.5,53.7,30.06,SE,136,0.0,0.0,81,0.00,,SKC,0.00,VWS V13.01,2013-10-07 09:42:00,
2013-10-07 05:47:00,59.5,53.7,30.06,SSE,158,0.0,0.0,81,0.00,,SKC,0.00,VWS V13.01,2013-10-07 09:47:00,
2013-10-07 05:52:00,59.5,54.0,30.06,SSE,158,0.0,0.0,82,0.00,,SKC,0.00,VWS V13.01,2013-10-07 09:52:00,
2013-10-07 05:57:00,59.5,54.0,30.06,ESE,114,0.0,0.0,82,0.00,,SKC,0.00,VWS V13.01,2013-10-07 09:57:00,
2013-10-07 06:02:00,59.3,53.8,30.06,ESE,114,0.0,0.0,82,0.00,,SKC,0.00,VWS V13.01,2013-10-07 10:02:00,
2013-10-07 06:07:00,59.3,53.8,30.05,ESE,114,0.0,0.0,82,0.00,,SKC,0.00,VWS V13.01,2013-10-07 10:07:00,
2013-10-07 06:12:00,59.3,53.8,30.05,NW,316,0.0,0.0,82,0.00,,SKC,0.00,VWS V13.01,2013-10-07 10:12:00,
2013-10-07 06:17:00,59.3,53.8,30.04,NW,316,0.0,0.0,82,0.00,,SKC,0.00,VWS V13.01,2013-10-07 10:17:00,
2013-10-07 06:22:00,59.1,53.6,30.04,NW,316,0.0,0.0,82,0.00,,SKC,0.00,VWS V13.01,2013-10-07 10:22:00,
2013-10-07 06:27:00,59.3,53.8,30.04,NW,316,0.0,0.0,82,0.00,,SKC,0.00,VWS V13.01,2013-10-07 10:27:00,
2013-10-07 06:32:00,59.3,53.8,30.04,NW,316,0.0,0.0,82,0.00,,SKC,0.00,VWS V13.01,2013-10-07 10:32:00,
2013-10-07 06:37:00,59.3,53.8,30.04,NW,316,0.0,0.0,82,0.00,,SKC,0.00,VWS V13.01,2013-10-07 10:37:00,
2013-10-07 06:42:00,59.5,54.0,30.04,WSW,248,0.0,0.0,82,0.00,,SKC,0.00,VWS V13.01,2013-10-07 10:42:00,
2013-10-07 06:47:00,59.5,54.3,30.04,South,181,0.0,0.0,83,0.00,,SKC,0.00,VWS V13.01,2013-10-07 10:47:00,
2013-10-07 06:51:00,59.7,54.5,30.04,South,181,0.0,0.0,83,0.00,,SKC,0.00,VWS V13.01,2013-10-07 10:51:00,
2013-10-07 06:56:00,59.9,54.7,30.03,South,181,0.0,0.0,83,0.00,,SKC,0.00,VWS V13.01,2013-10-07 10:56:00,
2013-10-07 07:01:00,60.0,54.8,30.03,South,181,0.0,0.0,83,0.00,,SKC,0.00,VWS V13.01,2013-10-07 11:01:00,
2013-10-07 07:06:00,60.4,55.2,30.03,ESE,114,0.0,0.0,83,0.00,,SKC,0.00,VWS V13.01,2013-10-07 11:06:00,
2013-10-07 07:12:00,60.4,55.2,30.02,NNW,338,0.0,0.0,83,0.00,,SKC,0.00,VWS V13.01,2013-10-07 11:12:00,
2013-10-07 07:16:00,60.6,55.4,30.02,ENE,68,0.6,0.6,83,0.00,,SKC,0.00,VWS V13.01,2013-10-07 11:16:00,
2013-10-07 07:22:00,60.6,55.4,30.02,SW,226,0.0,0.0,83,0.00,,SKC,0.00,VWS V13.01,2013-10-07 11:22:00,
2013-10-07 07:27:00,60.9,55.7,30.02,South,181,0.0,0.0,83,0.00,,SKC,0.00,VWS V13.01,2013-10-07 11:27:00,
2013-10-07 07:32:00,61.3,56.1,30.01,SSE,158,0.8,0.8,83,0.00,,SKC,0.00,VWS V13.01,2013-10-07 11:32:00,
2013-10-07 07:36:00,61.5,56.3,30.01,SSW,204,0.0,0.0,83,0.00,,SKC,0.00,VWS V13.01,2013-10-07 11:36:00,
2013-10-07 07:41:00,61.7,56.5,30.01,South,181,0.0,0.0,83,0.00,,SKC,0.00,VWS V13.01,2013-10-07 11:41:00,
2013-10-07 07:47:00,62.2,57.0,30.01,SE,136,0.0,0.0,83,0.00,,SKC,0.00,VWS V13.01,2013-10-07 11:47:00,
2013-10-07 07:52:00,62.4,56.8,30.01,SSE,158,0.0,0.0,82,0.00,,SKC,0.00,VWS V13.01,2013-10-07 11:52:00,
2013-10-07 07:57:00,63.1,57.5,30.01,South,181,6.0,6.0,82,0.00,,SKC,0.00,VWS V13.01,2013-10-07 11:57:00,
2013-10-07 08:02:00,63.1,57.5,30.01,South,181,6.2,6.2,82,0.00,,SKC,0.00,VWS V13.01,2013-10-07 12:02:00,
2013-10-07 08:07:00,63.3,57.4,30.02,SSW,204,2.4,2.4,81,0.00,,SKC,0.00,VWS V13.01,2013-10-07 12:07:00,
2013-10-07 08:12:00,63.6,57.7,30.01,SE,136,0.0,0.0,81,0.00,,SKC,0.00,VWS V13.01,2013-10-07 12:12:00,
2013-10-07 08:17:00,63.6,57.7,30.01,SSE,158,0.0,0.0,81,0.00,,SKC,0.00,VWS V13.01,2013-10-07 12:17:00,
2013-10-07 08:22:00,63.6,57.7,30.01,NE,46,0.0,0.0,81,0.00,,SKC,0.00,VWS V13.01,2013-10-07 12:22:00,
2013-10-07 08:27:00,63.6,57.3,30.01,North,1,0.0,0.0,80,0.00,,SKC,0.00,VWS V13.01,2013-10-07 12:27:00,
2013-10-07 08:32:00,63.6,57.3,30.01,SSE,158,0.0,0.0,80,0.00,,SKC,0.00,VWS V13.01,2013-10-07 12:32:00,
2013-10-07 08:37:00,63.8,57.5,30.01,South,181,1.5,1.5,80,0.00,,SKC,0.00,VWS V13.01,2013-10-07 12:37:00,
2013-10-07 08:42:00,64.2,57.9,30.00,South,181,4.2,4.2,80,0.00,,SKC,0.00,VWS V13.01,2013-10-07 12:42:00,
2013-10-07 08:47:00,64.2,57.9,30.00,SSE,158,0.8,0.8,80,0.00,,SKC,0.00,VWS V13.01,2013-10-07 12:47:00,
2013-10-07 08:52:00,64.5,58.2,30.00,South,181,2.6,8.2,80,0.00,,SKC,0.00,VWS V13.01,2013-10-07 12:52:00,
2013-10-07 08:57:00,65.1,58.4,29.99,South,181,4.9,4.9,79,0.00,,SKC,0.00,VWS V13.01,2013-10-07 12:57:00,
2013-10-07 09:02:00,65.8,59.1,29.99,South,181,0.0,0.0,79,0.00,,SKC,0.00,VWS V13.01,2013-10-07 13:02:00,
2013-10-07 09:07:00,66.0,59.3,29.99,South,181,2.4,2.4,79,0.00,,SKC,0.00,VWS V13.01,2013-10-07 13:07:00,
2013-10-07 09:12:00,66.7,59.6,29.98,SSE,158,2.6,2.6,78,0.00,,SKC,0.00,VWS V13.01,2013-10-07 13:12:00,
2013-10-07 09:17:00,67.2,60.1,29.99,SSE,158,1.7,1.7,78,0.00,,SKC,0.00,VWS V13.01,2013-10-07 13:17:00,
2013-10-07 09:22:00,67.8,60.3,29.99,South,181,4.0,6.4,77,0.00,,SKC,0.00,VWS V13.01,2013-10-07 13:22:00,
2013-10-07 09:27:00,68.5,60.6,29.98,South,181,0.0,4.4,76,0.00,,SKC,0.00,VWS V13.01,2013-10-07 13:27:00,
2013-10-07 09:32:00,68.9,61.0,29.98,South,181,5.1,5.1,76,0.00,,SKC,0.00,VWS V13.01,2013-10-07 13:32:00,
2013-10-07 09:37:00,69.4,61.1,29.98,South,181,4.4,5.5,75,0.00,,SKC,0.00,VWS V13.01,2013-10-07 13:37:00,
2013-10-07 09:42:00,69.2,61.0,29.98,SSW,204,4.9,4.9,75,0.00,,SKC,0.00,VWS V13.01,2013-10-07 13:42:00,
2013-10-07 09:47:00,69.4,61.1,29.97,South,181,1.7,1.7,75,0.00,,SKC,0.00,VWS V13.01,2013-10-07 13:47:00,
2013-10-07 09:52:00,69.4,61.1,29.97,South,181,5.3,5.3,75,0.00,,SKC,0.00,VWS V13.01,2013-10-07 13:52:00,
2013-10-07 09:57:00,69.6,61.3,29.97,South,181,5.8,5.8,75,0.00,,SKC,0.00,VWS V13.01,2013-10-07 13:57:00,
2013-10-07 10:02:00,70.3,62.0,29.97,SSW,204,0.0,0.0,75,0.00,,SKC,0.00,VWS V13.01,2013-10-07 14:02:00,
2013-10-07 10:07:00,70.5,61.8,29.96,North,1,5.8,5.8,74,0.00,,SKC,0.00,VWS V13.01,2013-10-07 14:07:00,
2013-10-07 10:12:00,70.7,61.6,29.96,SE,136,2.0,2.0,73,0.00,,SKC,0.00,VWS V13.01,2013-10-07 14:12:00,
2013-10-07 10:17:00,70.8,61.7,29.96,South,181,2.4,2.4,73,0.00,,SKC,0.00,VWS V13.01,2013-10-07 14:17:00,
2013-10-07 10:22:00,70.8,62.1,29.95,SSE,158,1.7,4.2,74,0.00,,SKC,0.00,VWS V13.01,2013-10-07 14:22:00,
2013-10-07 10:27:00,71.4,61.9,29.95,South,181,2.6,2.6,72,0.00,,SKC,0.00,VWS V13.01,2013-10-07 14:27:00,
2013-10-07 10:32:00,71.4,62.3,29.94,South,181,4.0,4.0,73,0.00,,SKC,0.00,VWS V13.01,2013-10-07 14:32:00,
2013-10-07 10:37:00,71.7,62.6,29.94,South,181,3.5,3.5,73,0.00,,SKC,0.00,VWS V13.01,2013-10-07 14:37:00,
2013-10-07 10:42:00,72.1,62.6,29.94,South,181,4.0,4.0,72,0.00,,SKC,0.00,VWS V13.01,2013-10-07 14:42:00,
2013-10-07 10:47:00,72.3,62.4,29.93,South,181,4.9,4.9,71,0.00,,SKC,0.00,VWS V13.01,2013-10-07 14:47:00,
2013-10-07 10:52:00,72.6,62.7,29.93,South,181,4.0,4.0,71,0.00,,SKC,0.00,VWS V13.01,2013-10-07 14:52:00,
2013-10-07 10:57:00,73.2,63.2,29.92,East,91,4.0,4.0,71,0.00,,SKC,0.00,VWS V13.01,2013-10-07 14:57:00,
2013-10-07 11:02:00,73.0,62.7,29.92,WSW,248,0.0,0.0,70,0.00,,SKC,0.00,VWS V13.01,2013-10-07 15:02:00,
2013-10-07 11:07:00,73.2,62.8,29.92,South,181,10.7,10.7,70,0.00,,SKC,0.00,VWS V13.01,2013-10-07 15:07:00,
2013-10-07 11:12:00,73.2,62.8,29.92,South,181,1.3,1.3,70,0.00,,SKC,0.00,VWS V13.01,2013-10-07 15:12:00,
2013-10-07 11:17:00,73.2,62.8,29.91,South,181,4.4,4.4,70,0.00,,SKC,0.00,VWS V13.01,2013-10-07 15:17:00,
2013-10-07 11:22:00,73.4,62.6,29.91,SSE,158,6.7,6.7,69,0.00,,SKC,0.00,VWS V13.01,2013-10-07 15:22:00,
2013-10-07 11:27:00,73.7,62.9,29.91,SSE,158,6.0,6.0,69,0.00,,SKC,0.00,VWS V13.01,2013-10-07 15:27:00,
2013-10-07 11:32:00,74.1,62.9,29.90,South,181,0.0,0.0,68,0.00,,SKC,0.00,VWS V13.01,2013-10-07 15:32:00,
2013-10-07 11:37:00,74.1,62.5,29.90,WSW,248,0.0,5.8,67,0.00,,SKC,0.00,VWS V13.01,2013-10-07 15:37:00,
2013-10-07 11:42:00,74.1,62.5,29.90,SSE,158,0.4,0.4,67,0.00,,SKC,0.00,VWS V13.01,2013-10-07 15:42:00,
2013-10-07 11:47:00,74.1,62.0,29.90,SSE,158,0.4,0.4,66,0.00,,SKC,0.00,VWS V13.01,2013-10-07 15:47:00,
2013-10-07 11:52:00,73.9,62.3,29.90,South,181,4.6,4.6,67,0.00,,SKC,0.00,VWS V13.01,2013-10-07 15:52:00,
2013-10-07 11:57:00,73.7,62.1,29.89,SSW,204,5.3,5.3,67,0.00,,SKC,0.00,VWS V13.01,2013-10-07 15:57:00,
2013-10-07 12:02:00,73.9,62.3,29.89,SSE,158,1.7,1.7,67,0.00,,SKC,0.00,VWS V13.01,2013-10-07 16:02:00,
2013-10-07 12:07:00,74.1,62.5,29.88,SSW,204,3.1,3.1,67,0.00,,SKC,0.00,VWS V13.01,2013-10-07 16:07:00,
2013-10-07 12:12:00,74.6,62.9,29.87,South,181,1.1,1.1,67,0.00,,SKC,0.00,VWS V13.01,2013-10-07 16:12:00,
2013-10-07 12:17:00,75.0,63.3,29.87,South,181,2.4,2.4,67,0.00,,SKC,0.00,VWS V13.01,2013-10-07 16:17:00,
2013-10-07 12:22:00,75.3,63.2,29.86,South,181,1.5,4.0,66,0.00,,SKC,0.00,VWS V13.01,2013-10-07 16:22:00,
2013-10-07 12:27:00,75.3,63.2,29.86,ESE,114,5.5,5.5,66,0.00,,SKC,0.00,VWS V13.01,2013-10-07 16:27:00,
2013-10-07 12:32:00,75.0,62.9,29.86,South,181,0.0,0.0,66,0.00,,SKC,0.00,VWS V13.01,2013-10-07 16:32:00,
2013-10-07 12:37:00,74.8,62.7,29.85,SSE,158,5.5,5.5,66,0.00,,SKC,0.00,VWS V13.01,2013-10-07 16:37:00,
2013-10-07 12:42:00,75.0,62.9,29.84,South,181,2.9,4.6,66,0.00,,SKC,0.00,VWS V13.01,2013-10-07 16:42:00,
2013-10-07 12:47:00,75.5,63.4,29.84,South,181,13.4,13.4,66,0.00,,SKC,0.00,VWS V13.01,2013-10-07 16:47:00,
2013-10-07 12:52:00,75.7,63.5,29.83,South,181,4.9,4.9,66,0.00,,SKC,0.00,VWS V13.01,2013-10-07 16:52:00,
2013-10-07 12:57:00,75.7,63.5,29.83,South,181,6.4,6.4,66,0.00,,SKC,0.00,VWS V13.01,2013-10-07 16:57:00,
2013-10-07 13:02:00,76.1,63.9,29.83,SSE,158,0.0,0.0,66,0.00,,SKC,0.00,VWS V13.01,2013-10-07 17:02:00,
2013-10-07 13:07:00,76.6,64.0,29.81,South,181,0.4,0.4,65,0.00,,SKC,0.00,VWS V13.01,2013-10-07 17:07:00,
2013-10-07 13:12:00,77.0,64.3,29.80,SSE,158,8.7,8.7,65,0.00,,SKC,0.00,VWS V13.01,2013-10-07 17:12:00,
2013-10-07 13:17:00,77.1,64.0,29.80,South,181,0.0,0.0,64,0.00,,SKC,0.00,VWS V13.01,2013-10-07 17:17:00,
2013-10-07 13:22:00,76.8,63.3,29.80,SSE,158,1.7,6.9,63,0.00,,SKC,0.00,VWS V13.01,2013-10-07 17:22:00,
2013-10-07 13:27:00,76.6,63.1,29.79,SSW,204,3.1,3.1,63,0.00,,SKC,0.00,VWS V13.01,2013-10-07 17:27:00,
2013-10-07 13:32:00,76.1,63.0,29.79,South,181,1.7,1.7,64,0.00,,SKC,0.00,VWS V13.01,2013-10-07 17:32:00,
2013-10-07 13:37:00,75.9,62.9,29.78,SSE,158,10.7,10.7,64,0.00,,SKC,0.00,VWS V13.01,2013-10-07 17:37:00,
2013-10-07 13:42:00,75.7,62.7,29.78,SSE,158,6.0,6.0,64,0.00,,SKC,0.00,VWS V13.01,2013-10-07 17:42:00,
2013-10-07 13:47:00,75.9,63.3,29.77,South,181,5.3,5.3,65,0.00,,SKC,0.00,VWS V13.01,2013-10-07 17:47:00,
2013-10-07 13:52:00,76.2,63.1,29.77,South,181,4.6,5.3,64,0.00,,SKC,0.00,VWS V13.01,2013-10-07 17:52:00,
2013-10-07 13:57:00,76.6,63.5,29.77,SSW,204,10.2,10.2,64,0.00,,SKC,0.00,VWS V13.01,2013-10-07 17:57:00,
2013-10-07 14:02:00,76.6,63.5,29.75,SSE,158,3.8,3.8,64,0.00,,SKC,0.00,VWS V13.01,2013-10-07 18:02:00,
2013-10-07 14:07:00,76.4,63.3,29.75,South,181,2.4,4.6,64,0.00,,SKC,0.00,VWS V13.01,2013-10-07 18:07:00,
2013-10-07 14:12:00,75.9,62.9,29.76,South,181,4.9,4.9,64,0.00,,SKC,0.00,VWS V13.01,2013-10-07 18:12:00,
2013-10-07 14:17:00,75.3,63.6,29.76,SSW,204,7.3,7.3,67,0.00,,SKC,0.00,VWS V13.01,2013-10-07 18:17:00,
2013-10-07 14:22:00,73.7,63.3,29.76,South,181,3.1,3.1,70,0.00,,SKC,0.00,VWS V13.01,2013-10-07 18:22:00,
2013-10-07 14:27:00,73.2,63.2,29.75,South,181,2.4,2.4,71,0.00,,SKC,0.00,VWS V13.01,2013-10-07 18:27:00,
2013-10-07 14:32:00,73.2,64.0,29.75,South,181,5.1,5.1,73,0.00,,SKC,0.00,VWS V13.01,2013-10-07 18:32:00,
2013-10-07 14:37:00,72.5,63.4,29.75,South,181,5.5,5.8,73,0.00,,SKC,0.00,VWS V13.01,2013-10-07 18:37:00,
2013-10-07 14:42:00,72.3,63.6,29.75,South,181,5.5,5.5,74,0.00,,SKC,0.00,VWS V13.01,2013-10-07 18:42:00,
2013-10-07 14:47:00,72.1,63.8,29.74,South,181,0.0,0.0,75,0.00,,SKC,0.00,VWS V13.01,2013-10-07 18:47:00,
2013-10-07 14:52:00,71.7,63.7,29.74,South,181,12.0,12.0,76,0.00,,SKC,0.00,VWS V13.01,2013-10-07 18:52:00,
2013-10-07 14:57:00,71.7,63.7,29.73,South,181,3.3,3.3,76,0.00,,SKC,0.00,VWS V13.01,2013-10-07 18:57:00,
2013-10-07 15:02:00,71.4,63.5,29.73,SSW,204,5.8,5.8,76,0.00,,SKC,0.00,VWS V13.01,2013-10-07 19:02:00,
2013-10-07 15:07:00,71.2,63.6,29.71,SSW,204,1.5,1.5,77,0.00,,SKC,0.00,VWS V13.01,2013-10-07 19:07:00,
2013-10-07 15:12:00,70.8,63.2,29.71,SSE,158,4.6,4.6,77,0.00,,SKC,0.00,VWS V13.01,2013-10-07 19:12:00,
2013-10-07 15:17:00,70.8,63.6,29.71,NNE,24,2.0,2.0,78,0.00,,SKC,0.00,VWS V13.01,2013-10-07 19:17:00,
2013-10-07 15:22:00,70.7,63.5,29.71,South,181,6.4,6.4,78,0.00,,SKC,0.00,VWS V13.01,2013-10-07 19:22:00,
2013-10-07 15:27:00,70.3,63.5,29.71,South,181,2.2,2.2,79,0.00,,SKC,0.00,VWS V13.01,2013-10-07 19:27:00,
2013-10-07 15:32:00,69.9,63.5,29.70,South,181,0.2,0.2,80,0.02,,SKC,0.02,VWS V13.01,2013-10-07 19:32:00,
2013-10-07 15:37:00,69.0,63.3,29.69,South,181,5.8,5.8,82,0.06,,SKC,0.06,VWS V13.01,2013-10-07 19:37:00,
2013-10-07 15:42:00,68.7,63.7,29.72,South,181,5.5,5.5,84,0.10,,SKC,0.10,VWS V13.01,2013-10-07 19:42:00,
2013-10-07 15:47:00,68.1,63.1,29.76,NE,46,2.9,2.9,84,0.14,,SKC,0.14,VWS V13.01,2013-10-07 19:47:00,
2013-10-07 15:52:00,67.6,62.9,29.77,North,1,1.3,3.1,85,0.35,,SKC,0.35,VWS V13.01,2013-10-07 19:52:00,
2013-10-07 15:57:00,66.7,62.0,29.77,South,181,2.9,2.9,85,0.49,,SKC,0.49,VWS V13.01,2013-10-07 19:57:00,
2013-10-07 16:02:00,65.8,61.2,29.77,South,181,2.4,2.4,85,0.57,,SKC,0.57,VWS V13.01,2013-10-07 20:02:00,
2013-10-07 16:07:00,64.7,60.4,29.77,SSW,204,1.3,4.2,86,0.59,,SKC,0.59,VWS V13.01,2013-10-07 20:07:00,
2013-10-07 16:12:00,64.5,60.2,29.77,SW,226,0.0,0.0,86,0.61,,SKC,0.61,VWS V13.01,2013-10-07 20:12:00,
2013-10-07 16:17:00,64.2,59.9,29.78,South,181,1.7,1.7,86,0.61,,SKC,0.61,VWS V13.01,2013-10-07 20:17:00,
2013-10-07 16:22:00,64.0,60.1,29.78,South,181,1.3,2.0,87,0.61,,SKC,0.61,VWS V13.01,2013-10-07 20:22:00,
2013-10-07 16:27:00,64.0,60.1,29.78,SSE,158,5.3,5.3,87,0.63,,SKC,0.65,VWS V13.01,2013-10-07 20:27:00,
2013-10-07 16:32:00,63.8,59.9,29.78,SE,136,2.6,2.6,87,0.59,,SKC,0.65,VWS V13.01,2013-10-07 20:32:00,
2013-10-07 16:37:00,63.8,60.2,29.78,South,181,6.4,6.4,88,0.59,,SKC,0.67,VWS V13.01,2013-10-07 20:37:00,
2013-10-07 16:42:00,63.6,60.0,29.79,SSE,158,2.6,2.6,88,0.57,,SKC,0.69,VWS V13.01,2013-10-07 20:42:00,
2013-10-07 16:47:00,63.6,60.0,29.78,South,181,4.4,4.4,88,0.57,,SKC,0.71,VWS V13.01,2013-10-07 20:47:00,
2013-10-07 16:52:00,63.8,60.2,29.78,South,181,0.6,3.8,88,0.32,,SKC,0.75,VWS V13.01,2013-10-07 20:52:00,
2013-10-07 16:57:00,63.8,60.2,29.79,South,181,0.8,0.8,88,0.22,,SKC,0.75,VWS V13.01,2013-10-07 20:57:00,
2013-10-07 17:02:00,63.8,60.2,29.80,South,181,5.1,5.1,88,0.20,,SKC,0.77,VWS V13.01,2013-10-07 21:02:00,
2013-10-07 17:07:00,63.6,60.0,29.81,South,181,3.3,3.3,88,0.18,,SKC,0.77,VWS V13.01,2013-10-07 21:07:00,
2013-10-07 17:12:00,63.6,60.0,29.82,South,181,0.8,0.8,88,0.18,,SKC,0.80,VWS V13.01,2013-10-07 21:12:00,
2013-10-07 17:17:00,63.6,60.0,29.82,South,181,4.6,4.6,88,0.18,,SKC,0.80,VWS V13.01,2013-10-07 21:17:00,
2013-10-07 17:22:00,63.5,59.6,29.82,SSE,158,0.0,3.3,87,0.18,,SKC,0.80,VWS V13.01,2013-10-07 21:22:00,
2013-10-07 17:27:00,63.3,59.0,29.82,South,181,7.6,7.6,86,0.14,,SKC,0.80,VWS V13.01,2013-10-07 21:27:00,
2013-10-07 17:32:00,63.3,59.0,29.82,South,181,3.3,3.3,86,0.12,,SKC,0.80,VWS V13.01,2013-10-07 21:32:00,
2013-10-07 17:37:00,62.9,58.7,29.83,SSW,204,5.8,5.8,86,0.12,,SKC,0.80,VWS V13.01,2013-10-07 21:37:00,
2013-10-07 17:42:00,62.7,58.5,29.83,South,181,0.8,0.8,86,0.08,,SKC,0.80,VWS V13.01,2013-10-07 21:42:00,
2013-10-07 17:47:00,62.7,58.1,29.84,SE,136,0.0,0.0,85,0.08,,SKC,0.80,VWS V13.01,2013-10-07 21:47:00,
2013-10-07 17:52:00,62.6,58.0,29.84,South,181,0.4,0.4,85,0.04,,SKC,0.80,VWS V13.01,2013-10-07 21:52:00,
2013-10-07 17:57:00,62.4,58.2,29.85,SE,136,0.0,0.0,86,0.04,,SKC,0.80,VWS V13.01,2013-10-07 21:57:00,
2013-10-07 18:02:00,62.2,58.0,29.85,North,1,0.6,0.6,86,0.02,,SKC,0.80,VWS V13.01,2013-10-07 22:02:00,
2013-10-07 18:07:00,62.0,57.5,29.86,SE,136,0.0,0.0,85,0.02,,SKC,0.80,VWS V13.01,2013-10-07 22:07:00,
2013-10-07 18:12:00,61.7,57.2,29.88,East,91,0.0,0.0,85,0.00,,SKC,0.80,VWS V13.01,2013-10-07 22:12:00,
2013-10-07 18:17:00,61.5,57.0,29.88,ESE,114,0.0,0.0,85,0.00,,SKC,0.80,VWS V13.01,2013-10-07 22:17:00,
2013-10-07 18:22:00,61.5,57.0,29.88,SE,136,1.7,1.7,85,0.00,,SKC,0.80,VWS V13.01,2013-10-07 22:22:00,
2013-10-07 18:26:00,61.3,56.8,29.88,SE,136,3.8,3.8,85,0.00,,SKC,0.80,VWS V13.01,2013-10-07 22:26:00,
2013-10-07 18:31:00,61.1,56.6,29.90,South,181,1.7,1.7,85,0.00,,SKC,0.80,VWS V13.01,2013-10-07 22:31:00,
2013-10-07 18:36:00,60.9,56.0,29.90,South,181,0.0,0.0,84,0.00,,SKC,0.80,VWS V13.01,2013-10-07 22:36:00,
2013-10-07 18:42:00,60.6,55.8,29.90,ESE,114,0.0,0.0,84,0.00,,SKC,0.80,VWS V13.01,2013-10-07 22:42:00,
2013-10-07 18:47:00,60.4,55.5,29.91,South,181,1.3,1.3,84,0.00,,SKC,0.80,VWS V13.01,2013-10-07 22:47:00,
2013-10-07 18:52:00,60.0,54.8,29.91,SW,226,0.0,0.0,83,0.00,,SKC,0.80,VWS V13.01,2013-10-07 22:52:00,
2013-10-07 18:57:00,59.9,54.7,29.92,SSE,158,1.7,1.7,83,0.00,,SKC,0.80,VWS V13.01,2013-10-07 22:57:00,
2013-10-07 19:02:00,59.5,54.3,29.93,SE,136,0.6,0.6,83,0.02,,SKC,0.81,VWS V13.01,2013-10-07 23:02:00,
2013-10-07 19:07:00,58.8,53.7,29.93,South,181,0.0,0.0,83,0.00,,SKC,0.00,VWS V13.01,2013-10-07 23:07:00,
2013-10-07 19:12:00,58.8,53.7,29.93,ENE,68,0.0,0.0,83,0.00,,SKC,0.00,VWS V13.01,2013-10-07 23:12:00,
2013-10-07 19:17:00,58.8,53.7,29.93,NNE,24,0.4,0.4,83,0.00,,SKC,0.00,VWS V13.01,2013-10-07 23:17:00,
2013-10-07 19:22:00,58.6,53.5,29.94,SSE,158,0.0,0.0,83,0.00,,SKC,0.00,VWS V13.01,2013-10-07 23:22:00,
2013-10-07 19:27:00,58.4,53.3,29.94,South,181,0.0,0.0,83,0.00,,SKC,0.00,VWS V13.01,2013-10-07 23:27:00,
2013-10-07 19:32:00,58.2,53.4,29.94,ESE,114,0.0,0.0,84,0.00,,SKC,0.00,VWS V13.01,2013-10-07 23:32:00,
2013-10-07 19:37:00,58.1,53.3,29.94,SSE,158,0.0,0.0,84,0.00,,SKC,0.00,VWS V13.01,2013-10-07 23:37:00,
2013-10-07 19:42:00,58.1,53.3,29.94,SE,136,0.0,0.0,84,0.00,,SKC,0.00,VWS V13.01,2013-10-07 23:42:00,
2013-10-07 19:47:00,57.9,53.1,29.94,SE,136,0.0,0.0,84,0.00,,SKC,0.00,VWS V13.01,2013-10-07 23:47:00,
2013-10-07 19:52:00,57.7,52.9,29.94,South,181,0.0,0.0,84,0.00,,SKC,0.00,VWS V13.01,2013-10-07 23:52:00,
2013-10-07 19:57:00,57.5,52.7,29.95,SSE,158,0.0,0.0,84,0.00,,SKC,0.00,VWS V13.01,2013-10-07 23:57:00,
2013-10-07 20:02:00,57.5,52.4,29.95,South,181,0.0,0.0,83,0.00,,SKC,0.00,VWS V13.01,2013-10-08 00:02:00,
2013-10-07 20:07:00,57.3,52.2,29.95,NNE,24,1.3,1.3,83,0.00,,SKC,0.00,VWS V13.01,2013-10-08 00:07:00,
2013-10-07 20:12:00,57.2,51.8,29.96,SE,136,0.0,0.0,82,0.00,,SKC,0.00,VWS V13.01,2013-10-08 00:12:00,
2013-10-07 20:17:00,57.0,51.6,29.96,SSE,158,0.0,0.0,82,0.00,,SKC,0.00,VWS V13.01,2013-10-08 00:17:00,
2013-10-07 20:22:00,56.8,51.4,29.96,SSW,204,0.0,0.0,82,0.00,,SKC,0.00,VWS V13.01,2013-10-08 00:22:00,
2013-10-07 20:27:00,56.6,50.8,29.96,South,181,2.4,2.4,81,0.00,,SKC,0.00,VWS V13.01,2013-10-08 00:27:00,
2013-10-07 20:32:00,56.4,50.7,29.97,South,181,0.0,0.0,81,0.00,,SKC,0.00,VWS V13.01,2013-10-08 00:32:00,
2013-10-07 20:37:00,56.3,50.5,29.97,South,181,0.0,0.0,81,0.00,,SKC,0.00,VWS V13.01,2013-10-08 00:37:00,
2013-10-07 20:42:00,56.1,50.4,29.97,SSE,158,0.0,0.0,81,0.00,,SKC,0.00,VWS V13.01,2013-10-08 00:42:00,
2013-10-07 20:47:00,55.9,50.2,29.98,SSW,204,0.0,0.0,81,0.00,,SKC,0.00,VWS V13.01,2013-10-08 00:47:00,
2013-10-07 20:52:00,55.7,50.0,29.98,NE,46,0.0,1.3,81,0.00,,SKC,0.00,VWS V13.01,2013-10-08 00:52:00,
2013-10-07 20:57:00,55.5,49.8,29.98,NNE,24,0.4,0.4,81,0.00,,SKC,0.00,VWS V13.01,2013-10-08 00:57:00,
2013-10-07 21:02:00,55.5,49.4,29.98,SSE,158,0.0,0.0,80,0.00,,SKC,0.00,VWS V13.01,2013-10-08 01:02:00,
2013-10-07 21:07:00,55.5,49.4,29.98,ESE,114,0.0,0.0,80,0.00,,SKC,0.00,VWS V13.01,2013-10-08 01:07:00,
2013-10-07 21:12:00,55.5,49.4,29.98,South,181,0.0,0.0,80,0.00,,SKC,0.00,VWS V13.01,2013-10-08 01:12:00,
2013-10-07 21:17:00,55.5,49.4,29.98,South,181,0.0,0.0,80,0.00,,SKC,0.00,VWS V13.01,2013-10-08 01:17:00,
2013-10-07 21:22:00,55.2,48.8,29.98,South,181,1.7,1.7,79,0.00,,SKC,0.00,VWS V13.01,2013-10-08 01:22:00,
2013-10-07 21:27:00,55.2,48.8,29.99,South,181,2.2,2.2,79,0.00,,SKC,0.00,VWS V13.01,2013-10-08 01:27:00,
2013-10-07 21:32:00,55.2,49.2,29.98,SSE,158,0.6,0.6,80,0.00,,SKC,0.00,VWS V13.01,2013-10-08 01:32:00,
2013-10-07 21:37:00,55.2,49.2,29.99,SSE,158,1.1,1.1,80,0.00,,SKC,0.00,VWS V13.01,2013-10-08 01:37:00,
2013-10-07 21:42:00,55.2,49.2,29.99,South,181,2.0,2.0,80,0.00,,SKC,0.00,VWS V13.01,2013-10-08 01:42:00,
2013-10-07 21:47:00,55.2,49.2,30.01,NNW,338,0.0,0.0,80,0.00,,SKC,0.00,VWS V13.01,2013-10-08 01:47:00,
2013-10-07 21:52:00,55.2,48.8,30.00,SSE,158,1.1,1.1,79,0.00,,SKC,0.00,VWS V13.01,2013-10-08 01:52:00,
2013-10-07 21:57:00,55.2,48.8,30.00,South,181,0.0,0.0,79,0.00,,SKC,0.00,VWS V13.01,2013-10-08 01:57:00,
2013-10-07 22:02:00,55.2,48.8,30.01,SW,226,0.0,0.0,79,0.00,,SKC,0.00,VWS V13.01,2013-10-08 02:02:00,
2013-10-07 22:07:00,55.0,48.6,30.01,South,181,0.0,0.0,79,0.00,,SKC,0.00,VWS V13.01,2013-10-08 02:07:00,
2013-10-07 22:12:00,55.0,48.6,30.01,South,181,0.8,0.8,79,0.00,,SKC,0.00,VWS V13.01,2013-10-08 02:12:00,
2013-10-07 22:17:00,55.0,48.6,30.01,South,181,0.0,0.0,79,0.00,,SKC,0.00,VWS V13.01,2013-10-08 02:17:00,
2013-10-07 22:22:00,55.2,48.8,30.01,South,181,0.0,0.0,79,0.00,,SKC,0.00,VWS V13.01,2013-10-08 02:22:00,
2013-10-07 22:27:00,55.0,48.6,30.01,ESE,114,0.0,0.0,79,0.00,,SKC,0.00,VWS V13.01,2013-10-08 02:27:00,
2013-10-07 22:32:00,54.8,48.4,30.01,ENE,68,0.0,0.0,79,0.00,,SKC,0.00,VWS V13.01,2013-10-08 02:32:00,
2013-10-07 22:37:00,54.5,48.1,30.01,SSE,158,0.0,0.0,79,0.00,,SKC,0.00,VWS V13.01,2013-10-08 02:37:00,
2013-10-07 22:42:00,54.5,48.1,30.01,South,181,0.0,0.0,79,0.00,,SKC,0.00,VWS V13.01,2013-10-08 02:42:00,
2013-10-07 22:47:00,54.6,48.2,30.02,South,181,0.0,0.0,79,0.00,,SKC,0.00,VWS V13.01,2013-10-08 02:47:00,
2013-10-07 22:52:00,54.6,48.2,30.01,South,181,0.0,0.0,79,0.00,,SKC,0.00,VWS V13.01,2013-10-08 02:52:00,
2013-10-07 22:57:00,54.6,48.2,30.02,SSE,158,0.0,0.0,79,0.00,,SKC,0.00,VWS V13.01,2013-10-08 02:57:00,
2013-10-07 23:02:00,54.8,48.4,30.02,SSE,158,0.6,0.6,79,0.00,,SKC,0.00,VWS V13.01,2013-10-08 03:02:00,
2013-10-07 23:07:00,55.0,48.6,30.02,South,181,0.0,1.5,79,0.00,,SKC,0.00,VWS V13.01,2013-10-08 03:07:00,
2013-10-07 23:12:00,55.0,48.6,30.02,South,181,0.0,0.0,79,0.00,,SKC,0.00,VWS V13.01,2013-10-08 03:12:00,
2013-10-07 23:17:00,55.0,48.6,30.02,South,181,0.0,0.0,79,0.00,,SKC,0.00,VWS V13.01,2013-10-08 03:17:00,
2013-10-07 23:22:00,55.2,48.5,30.02,SSW,204,0.0,0.4,78,0.00,,SKC,0.00,VWS V13.01,2013-10-08 03:22:00,
2013-10-07 23:27:00,55.2,48.1,30.02,SSW,204,0.0,0.0,77,0.00,,SKC,0.00,VWS V13.01,2013-10-08 03:27:00,
2013-10-07 23:32:00,55.4,48.3,30.02,South,181,0.0,0.0,77,0.00,,SKC,0.00,VWS V13.01,2013-10-08 03:32:00,
2013-10-07 23:37:00,55.4,48.3,30.02,East,91,0.0,0.0,77,0.00,,SKC,0.00,VWS V13.01,2013-10-08 03:37:00,
2013-10-07 23:42:00,55.4,48.3,30.02,SSE,158,0.0,0.0,77,0.00,,SKC,0.00,VWS V13.01,2013-10-08 03:42:00,
2013-10-07 23:47:00,55.2,48.1,30.03,East,91,0.0,0.0,77,0.00,,SKC,0.00,VWS V13.01,2013-10-08 03:47:00,
2013-10-07 23:52:00,55.2,48.1,30.03,ENE,68,0.0,0.0,77,0.00,,SKC,0.00,VWS V13.01,2013-10-08 03:52:00,
2013-10-07 23:57:00,55.2,48.1,30.03,SSE,158,0.0,0.0,77,0.00,,SKC,0.00,VWS V13.01,2013-10-08 03:57:00,